sensor_id;sensor_type;location;lat;lon;timestamp;pressure;altitude;pressure_sealevel;temperature;humidity
10008;BME280;5043;41.766;26.204;2023-04-19T00:02:19;100461.84;;;11.89;100.00
10008;BME280;5043;41.766;26.204;2023-04-19T00:04:44;100467.28;;;11.87;100.00
10008;BME280;5043;41.766;26.204;2023-04-19T00:07:10;100418.41;;;11.70;100.00
10008;BME280;5043;41.766;26.204;2023-04-19T00:09:35;100465.94;;;11.93;100.00
10008;BME280;5043;41.766;26.204;2023-04-19T00:12:02;100465.47;;;11.88;100.00
10008;BME280;5043;41.766;26.204;2023-04-19T00:14:27;100468.31;;;11.96;100.00
10008;BME280;5043;41.766;26.204;2023-04-19T00:16:53;100452.84;;;11.91;100.00
10008;BME280;5043;41.766;26.204;2023-04-19T00:19:18;100453.09;;;11.88;100.00
10008;BME280;5043;41.766;26.204;2023-04-19T00:21:45;100471.56;;;11.99;100.00
10008;BME280;5043;41.766;26.204;2023-04-19T00:24:11;100457.63;;;11.97;100.00
10008;BME280;5043;41.766;26.204;2023-04-19T00:26:37;100461.69;;;12.01;100.00
10008;BME280;5043;41.766;26.204;2023-04-19T00:29:02;100404.50;;;11.68;100.00
10008;BME280;5043;41.766;26.204;2023-04-19T00:31:27;100404.25;;;11.71;100.00
10008;BME280;5043;41.766;26.204;2023-04-19T00:33:53;100417.66;;;11.80;100.00
10008;BME280;5043;41.766;26.204;2023-04-19T00:36:18;100446.13;;;11.87;100.00
10008;BME280;5043;41.766;26.204;2023-04-19T00:38:44;100414.81;;;11.71;100.00
10008;BME280;5043;41.766;26.204;2023-04-19T00:41:09;100402.69;;;11.69;100.00
10008;BME280;5043;41.766;26.204;2023-04-19T00:43:35;100451.56;;;11.86;100.00
10008;BME280;5043;41.766;26.204;2023-04-19T00:46:01;100455.16;;;11.85;100.00
10008;BME280;5043;41.766;26.204;2023-04-19T00:48:26;100470.78;;;11.77;100.00
10008;BME280;5043;41.766;26.204;2023-04-19T00:50:52;100458.50;;;11.87;100.00
10008;BME280;5043;41.766;26.204;2023-04-19T00:53:18;100482.28;;;11.87;100.00
10008;BME280;5043;41.766;26.204;2023-04-19T00:55:43;100407.28;;;11.45;100.00
10008;BME280;5043;41.766;26.204;2023-04-19T00:58:09;100461.28;;;11.85;100.00
10008;BME280;5043;41.766;26.204;2023-04-19T01:00:35;100456.94;;;11.84;100.00
10008;BME280;5043;41.766;26.204;2023-04-19T01:03:01;100479.91;;;11.84;100.00
10008;BME280;5043;41.766;26.204;2023-04-19T01:05:26;100442.78;;;11.85;100.00
10008;BME280;5043;41.766;26.204;2023-04-19T01:07:52;100451.44;;;11.76;100.00
10008;BME280;5043;41.766;26.204;2023-04-19T01:10:17;100476.78;;;11.79;100.00
10008;BME280;5043;41.766;26.204;2023-04-19T01:12:43;100439.56;;;11.70;100.00
10008;BME280;5043;41.766;26.204;2023-04-19T01:15:08;100408.47;;;11.52;100.00
10008;BME280;5043;41.766;26.204;2023-04-19T01:17:34;100448.81;;;11.76;100.00
10008;BME280;5043;41.766;26.204;2023-04-19T01:20:04;100402.00;;;11.45;100.00
10008;BME280;5043;41.766;26.204;2023-04-19T01:22:33;100447.13;;;11.75;100.00
10008;BME280;5043;41.766;26.204;2023-04-19T01:24:59;100438.00;;;11.68;100.00
10008;BME280;5043;41.766;26.204;2023-04-19T01:27:25;100451.56;;;11.74;100.00
10008;BME280;5043;41.766;26.204;2023-04-19T01:29:50;100436.69;;;11.73;100.00
10008;BME280;5043;41.766;26.204;2023-04-19T01:32:16;100423.47;;;11.62;100.00
10008;BME280;5043;41.766;26.204;2023-04-19T01:34:41;100436.53;;;11.75;100.00
10008;BME280;5043;41.766;26.204;2023-04-19T01:37:07;100390.31;;;11.58;100.00
10008;BME280;5043;41.766;26.204;2023-04-19T01:39:33;100386.00;;;11.57;100.00
10008;BME280;5043;41.766;26.204;2023-04-19T01:41:58;100442.63;;;11.98;100.00
10008;BME280;5043;41.766;26.204;2023-04-19T01:44:24;100439.13;;;11.97;100.00
10008;BME280;5043;41.766;26.204;2023-04-19T01:46:49;100423.38;;;11.96;100.00
10008;BME280;5043;41.766;26.204;2023-04-19T01:49:15;100442.63;;;11.98;100.00
10008;BME280;5043;41.766;26.204;2023-04-19T01:51:41;100445.75;;;11.92;100.00
10008;BME280;5043;41.766;26.204;2023-04-19T01:54:06;100426.78;;;11.87;100.00
10008;BME280;5043;41.766;26.204;2023-04-19T01:56:31;100424.50;;;11.93;100.00
10008;BME280;5043;41.766;26.204;2023-04-19T01:58:57;100423.97;;;11.99;100.00
10008;BME280;5043;41.766;26.204;2023-04-19T02:01:23;100431.19;;;11.97;100.00
10008;BME280;5043;41.766;26.204;2023-04-19T02:03:48;100430.75;;;11.92;100.00
10008;BME280;5043;41.766;26.204;2023-04-19T02:06:14;100426.44;;;11.80;100.00
10008;BME280;5043;41.766;26.204;2023-04-19T02:08:40;100431.50;;;11.83;100.00
10008;BME280;5043;41.766;26.204;2023-04-19T02:11:11;100380.13;;;11.54;100.00
10008;BME280;5043;41.766;26.204;2023-04-19T02:13:38;100444.56;;;11.85;100.00
10008;BME280;5043;41.766;26.204;2023-04-19T02:16:04;100422.97;;;11.80;100.00
10008;BME280;5043;41.766;26.204;2023-04-19T02:18:30;100407.75;;;11.72;100.00
10008;BME280;5043;41.766;26.204;2023-04-19T02:20:57;100421.63;;;11.85;100.00
10008;BME280;5043;41.766;26.204;2023-04-19T02:23:23;100423.88;;;11.90;100.00
10008;BME280;5043;41.766;26.204;2023-04-19T02:25:50;100426.78;;;11.87;100.00
10008;BME280;5043;41.766;26.204;2023-04-19T02:28:15;100412.09;;;11.94;100.00
10008;BME280;5043;41.766;26.204;2023-04-19T02:30:41;100361.38;;;11.68;100.00
10008;BME280;5043;41.766;26.204;2023-04-19T02:33:06;100416.44;;;11.95;100.00
10008;BME280;5043;41.766;26.204;2023-04-19T02:35:32;100435.88;;;11.94;100.00
10008;BME280;5043;41.766;26.204;2023-04-19T02:37:59;100428.66;;;11.96;100.00
10008;BME280;5043;41.766;26.204;2023-04-19T02:40:24;100412.47;;;11.89;100.00
10008;BME280;5043;41.766;26.204;2023-04-19T02:42:51;100418.03;;;11.86;100.00
10008;BME280;5043;41.766;26.204;2023-04-19T02:45:16;100397.47;;;11.90;100.00
10008;BME280;5043;41.766;26.204;2023-04-19T02:47:42;100357.41;;;11.73;100.00
10008;BME280;5043;41.766;26.204;2023-04-19T02:50:08;100399.97;;;11.91;100.00
10008;BME280;5043;41.766;26.204;2023-04-19T02:52:33;100411.94;;;12.06;100.00
10008;BME280;5043;41.766;26.204;2023-04-19T02:54:59;100402.44;;;12.04;100.00
10008;BME280;5043;41.766;26.204;2023-04-19T02:57:24;100400.91;;;12.01;100.00
10008;BME280;5043;41.766;26.204;2023-04-19T02:59:50;100386.75;;;11.91;100.00
10008;BME280;5043;41.766;26.204;2023-04-19T03:02:15;100396.00;;;11.97;100.00
10008;BME280;5043;41.766;26.204;2023-04-19T03:04:41;100401.66;;;11.92;100.00
10008;BME280;5043;41.766;26.204;2023-04-19T03:07:08;100401.19;;;11.87;100.00
10008;BME280;5043;41.766;26.204;2023-04-19T03:09:33;100348.41;;;11.54;100.00
10008;BME280;5043;41.766;26.204;2023-04-19T03:11:59;100414.28;;;11.89;100.00
10008;BME280;5043;41.766;26.204;2023-04-19T03:14:25;100403.69;;;12.00;100.00
10008;BME280;5043;41.766;26.204;2023-04-19T03:16:51;100409.81;;;12.00;100.00
10008;BME280;5043;41.766;26.204;2023-04-19T03:19:16;100395.66;;;11.90;100.00
10008;BME280;5043;41.766;26.204;2023-04-19T03:21:42;100429.03;;;12.02;100.00
10008;BME280;5043;41.766;26.204;2023-04-19T03:24:07;100359.94;;;11.64;100.00
10008;BME280;5043;41.766;26.204;2023-04-19T03:26:33;100425.13;;;11.86;100.00
10008;BME280;5043;41.766;26.204;2023-04-19T03:28:58;100426.22;;;11.83;100.00
10008;BME280;5043;41.766;26.204;2023-04-19T03:31:24;100367.66;;;11.45;100.00
10008;BME280;5043;41.766;26.204;2023-04-19T03:33:49;100412.44;;;11.68;100.00
10008;BME280;5043;41.766;26.204;2023-04-19T03:36:15;100426.97;;;11.74;100.00
10008;BME280;5043;41.766;26.204;2023-04-19T03:38:40;100412.91;;;11.73;100.00
10008;BME280;5043;41.766;26.204;2023-04-19T03:41:20;100424.91;;;11.66;100.00
10008;BME280;5043;41.766;26.204;2023-04-19T03:43:45;100421.19;;;11.58;100.00
10008;BME280;5043;41.766;26.204;2023-04-19T03:46:11;100419.50;;;11.57;100.00
10008;BME280;5043;41.766;26.204;2023-04-19T03:48:36;100413.63;;;11.64;100.00
10008;BME280;5043;41.766;26.204;2023-04-19T03:51:02;100416.13;;;11.66;100.00
10008;BME280;5043;41.766;26.204;2023-04-19T03:53:27;100419.59;;;11.66;100.00
10008;BME280;5043;41.766;26.204;2023-04-19T03:55:53;100330.53;;;11.15;100.00
10008;BME280;5043;41.766;26.204;2023-04-19T03:58:18;100375.47;;;11.46;100.00
10008;BME280;5043;41.766;26.204;2023-04-19T04:00:44;100420.22;;;11.70;100.00
10008;BME280;5043;41.766;26.204;2023-04-19T04:03:09;100430.78;;;11.81;100.00
10008;BME280;5043;41.766;26.204;2023-04-19T04:05:34;100446.97;;;11.88;100.00
10008;BME280;5043;41.766;26.204;2023-04-19T04:08:00;100430.66;;;11.83;100.00
10008;BME280;5043;41.766;26.204;2023-04-19T04:10:25;100453.09;;;11.88;100.00
10008;BME280;5043;41.766;26.204;2023-04-19T04:12:51;100383.41;;;11.46;100.00
10008;BME280;5043;41.766;26.204;2023-04-19T04:15:16;100434.03;;;11.73;100.00
10008;BME280;5043;41.766;26.204;2023-04-19T04:17:42;100437.41;;;11.76;100.00
10008;BME280;5043;41.766;26.204;2023-04-19T04:20:08;100415.06;;;11.68;100.00
10008;BME280;5043;41.766;26.204;2023-04-19T04:22:33;100432.44;;;11.82;100.00
10008;BME280;5043;41.766;26.204;2023-04-19T04:24:59;100451.41;;;11.87;100.00
10008;BME280;5043;41.766;26.204;2023-04-19T04:27:26;100429.69;;;11.84;100.00
10008;BME280;5043;41.766;26.204;2023-04-19T04:29:51;100347.50;;;11.33;100.00
10008;BME280;5043;41.766;26.204;2023-04-19T04:32:17;100425.59;;;11.91;100.00
10008;BME280;5043;41.766;26.204;2023-04-19T04:34:47;100423.88;;;11.90;100.00
10008;BME280;5043;41.766;26.204;2023-04-19T04:37:12;100419.44;;;11.90;100.00
10008;BME280;5043;41.766;26.204;2023-04-19T04:39:38;100344.22;;;11.51;100.00
10008;BME280;5043;41.766;26.204;2023-04-19T04:42:05;100422.88;;;12.02;100.00
10008;BME280;5043;41.766;26.204;2023-04-19T04:44:33;100433.78;;;12.08;100.00
10008;BME280;5043;41.766;26.204;2023-04-19T04:46:59;100420.97;;;12.04;100.00
10008;BME280;5043;41.766;26.204;2023-04-19T04:49:24;100451.94;;;12.13;100.00
10008;BME280;5043;41.766;26.204;2023-04-19T04:51:50;100430.78;;;12.13;100.00
10008;BME280;5043;41.766;26.204;2023-04-19T04:54:17;100436.31;;;12.10;100.00
10008;BME280;5043;41.766;26.204;2023-04-19T04:56:43;100442.34;;;12.12;100.00
10008;BME280;5043;41.766;26.204;2023-04-19T04:59:09;100396.63;;;11.89;100.00
10008;BME280;5043;41.766;26.204;2023-04-19T05:01:35;100383.59;;;11.77;100.00
10008;BME280;5043;41.766;26.204;2023-04-19T05:04:00;100425.88;;;12.08;100.00
10008;BME280;5043;41.766;26.204;2023-04-19T05:06:26;100414.25;;;12.00;100.00
10008;BME280;5043;41.766;26.204;2023-04-19T05:08:52;100433.88;;;12.18;100.00
10008;BME280;5043;41.766;26.204;2023-04-19T05:11:17;100428.59;;;12.18;100.00
10008;BME280;5043;41.766;26.204;2023-04-19T05:13:43;100434.81;;;12.28;100.00
10008;BME280;5043;41.766;26.204;2023-04-19T05:16:09;100426.09;;;12.37;100.00
10008;BME280;5043;41.766;26.204;2023-04-19T05:18:35;100431.25;;;12.38;100.00
10008;BME280;5043;41.766;26.204;2023-04-19T05:21:00;100430.28;;;12.39;100.00
10008;BME280;5043;41.766;26.204;2023-04-19T05:23:26;100434.66;;;12.50;100.00
10008;BME280;5043;41.766;26.204;2023-04-19T05:25:51;100441.13;;;12.57;100.00
10008;BME280;5043;41.766;26.204;2023-04-19T05:28:17;100434.63;;;12.61;100.00
10008;BME280;5043;41.766;26.204;2023-04-19T05:30:43;100415.66;;;12.56;100.00
10008;BME280;5043;41.766;26.204;2023-04-19T05:33:09;100431.13;;;12.61;100.00
10008;BME280;5043;41.766;26.204;2023-04-19T05:35:35;100433.88;;;12.59;100.00
10008;BME280;5043;41.766;26.204;2023-04-19T05:38:01;100437.63;;;12.57;100.00
10008;BME280;5043;41.766;26.204;2023-04-19T05:40:27;100444.75;;;12.56;100.00
10008;BME280;5043;41.766;26.204;2023-04-19T05:42:53;100456.22;;;12.66;100.00
10008;BME280;5043;41.766;26.204;2023-04-19T05:45:20;100381.69;;;12.40;100.00
10008;BME280;5043;41.766;26.204;2023-04-19T05:47:46;100397.81;;;12.58;100.00
10008;BME280;5043;41.766;26.204;2023-04-19T05:50:12;100443.69;;;12.89;100.00
10008;BME280;5043;41.766;26.204;2023-04-19T05:52:39;100447.91;;;12.91;100.00
10008;BME280;5043;41.766;26.204;2023-04-19T05:55:05;100402.13;;;12.59;100.00
10008;BME280;5043;41.766;26.204;2023-04-19T05:57:31;100449.69;;;12.91;100.00
10008;BME280;5043;41.766;26.204;2023-04-19T05:59:57;100462.53;;;12.95;100.00
10008;BME280;5043;41.766;26.204;2023-04-19T06:02:22;100448.84;;;12.90;100.00
10008;BME280;5043;41.766;26.204;2023-04-19T06:04:47;100477.97;;;13.11;100.00
10008;BME280;5043;41.766;26.204;2023-04-19T06:07:13;100453.44;;;13.09;100.00
10008;BME280;5043;41.766;26.204;2023-04-19T06:09:39;100463.53;;;13.15;100.00
10008;BME280;5043;41.766;26.204;2023-04-19T06:12:04;100456.97;;;13.19;100.00
10008;BME280;5043;41.766;26.204;2023-04-19T06:14:30;100460.50;;;13.29;100.00
10008;BME280;5043;41.766;26.204;2023-04-19T06:16:56;100466.63;;;13.30;100.00
10008;BME280;5043;41.766;26.204;2023-04-19T06:19:22;100404.66;;;13.12;100.00
10008;BME280;5043;41.766;26.204;2023-04-19T06:21:47;100463.06;;;13.40;100.00
10008;BME280;5043;41.766;26.204;2023-04-19T06:24:13;100412.50;;;13.23;100.00
10008;BME280;5043;41.766;26.204;2023-04-19T06:26:39;100458.38;;;13.63;100.00
10008;BME280;5043;41.766;26.204;2023-04-19T06:29:05;100462.72;;;13.64;100.00
10008;BME280;5043;41.766;26.204;2023-04-19T06:31:32;100482.84;;;13.86;100.00
10008;BME280;5043;41.766;26.204;2023-04-19T06:33:58;100483.44;;;13.99;100.00
10008;BME280;5043;41.766;26.204;2023-04-19T06:36:24;100465.44;;;14.21;100.00
10008;BME280;5043;41.766;26.204;2023-04-19T06:38:50;100485.03;;;14.39;100.00
10008;BME280;5043;41.766;26.204;2023-04-19T06:41:16;100471.03;;;14.57;100.00
10008;BME280;5043;41.766;26.204;2023-04-19T06:43:42;100467.69;;;14.55;100.00
10008;BME280;5043;41.766;26.204;2023-04-19T06:46:09;100474.69;;;14.65;100.00
10008;BME280;5043;41.766;26.204;2023-04-19T06:48:37;100479.69;;;14.68;100.00
10008;BME280;5043;41.766;26.204;2023-04-19T06:51:03;100475.81;;;14.72;100.00
10008;BME280;5043;41.766;26.204;2023-04-19T06:53:28;100485.44;;;14.54;100.00
10008;BME280;5043;41.766;26.204;2023-04-19T06:55:58;100476.34;;;14.57;100.00
10008;BME280;5043;41.766;26.204;2023-04-19T06:58:25;100485.56;;;14.72;100.00
10008;BME280;5043;41.766;26.204;2023-04-19T07:00:51;100519.91;;;15.02;100.00
10008;BME280;5043;41.766;26.204;2023-04-19T07:03:17;100488.31;;;15.36;100.00
10008;BME280;5043;41.766;26.204;2023-04-19T07:05:43;100447.09;;;14.95;100.00
10008;BME280;5043;41.766;26.204;2023-04-19T07:08:09;100465.59;;;15.24;100.00
10008;BME280;5043;41.766;26.204;2023-04-19T07:10:35;100487.03;;;15.59;100.00
10008;BME280;5043;41.766;26.204;2023-04-19T07:13:03;100482.91;;;15.92;100.00
10008;BME280;5043;41.766;26.204;2023-04-19T07:15:29;100494.94;;;16.31;98.91
10008;BME280;5043;41.766;26.204;2023-04-19T07:17:54;100486.91;;;16.58;98.26
10008;BME280;5043;41.766;26.204;2023-04-19T07:20:20;100396.75;;;15.93;95.25
10008;BME280;5043;41.766;26.204;2023-04-19T07:22:46;100496.88;;;16.56;95.54
10008;BME280;5043;41.766;26.204;2023-04-19T07:25:13;100495.91;;;16.57;94.17
10008;BME280;5043;41.766;26.204;2023-04-19T07:27:39;100489.38;;;16.42;93.47
10008;BME280;5043;41.766;26.204;2023-04-19T07:30:06;100492.59;;;16.63;95.16
10008;BME280;5043;41.766;26.204;2023-04-19T07:32:32;100491.41;;;16.83;93.29
10008;BME280;5043;41.766;26.204;2023-04-19T07:34:58;100506.00;;;16.71;92.81
10008;BME280;5043;41.766;26.204;2023-04-19T07:37:24;100498.91;;;16.80;91.36
10008;BME280;5043;41.766;26.204;2023-04-19T07:39:50;100505.84;;;16.73;92.10
10008;BME280;5043;41.766;26.204;2023-04-19T07:42:15;100504.56;;;16.59;90.80
10008;BME280;5043;41.766;26.204;2023-04-19T07:44:41;100504.00;;;16.56;91.03
10008;BME280;5043;41.766;26.204;2023-04-19T07:47:06;100510.88;;;16.58;90.16
10008;BME280;5043;41.766;26.204;2023-04-19T07:49:32;100508.41;;;16.65;90.31
10008;BME280;5043;41.766;26.204;2023-04-19T07:52:01;100503.00;;;16.74;90.17
10008;BME280;5043;41.766;26.204;2023-04-19T07:54:28;100481.91;;;16.55;90.79
10008;BME280;5043;41.766;26.204;2023-04-19T07:56:54;100517.94;;;16.85;90.55
10008;BME280;5043;41.766;26.204;2023-04-19T07:59:20;100522.16;;;17.21;88.04
10008;BME280;5043;41.766;26.204;2023-04-19T08:01:46;100510.81;;;17.19;88.62
10008;BME280;5043;41.766;26.204;2023-04-19T08:04:11;100518.81;;;17.45;87.52
10008;BME280;5043;41.766;26.204;2023-04-19T08:06:37;100522.59;;;17.34;87.52
10008;BME280;5043;41.766;26.204;2023-04-19T08:09:04;100518.19;;;17.51;87.71
10008;BME280;5043;41.766;26.204;2023-04-19T08:11:30;100520.31;;;17.73;86.57
10008;BME280;5043;41.766;26.204;2023-04-19T08:13:55;100518.78;;;17.70;82.49
10008;BME280;5043;41.766;26.204;2023-04-19T08:16:21;100522.78;;;17.66;84.00
10008;BME280;5043;41.766;26.204;2023-04-19T08:18:49;100512.84;;;17.76;86.26
10008;BME280;5043;41.766;26.204;2023-04-19T08:21:16;100520.78;;;17.60;87.72
10008;BME280;5043;41.766;26.204;2023-04-19T08:23:42;100470.31;;;17.15;88.10
10008;BME280;5043;41.766;26.204;2023-04-19T08:26:08;100510.03;;;17.27;86.70
10008;BME280;5043;41.766;26.204;2023-04-19T08:28:34;100519.66;;;17.19;87.30
10008;BME280;5043;41.766;26.204;2023-04-19T08:31:00;100513.22;;;17.04;88.43
10008;BME280;5043;41.766;26.204;2023-04-19T08:33:30;100473.44;;;16.60;88.34
10008;BME280;5043;41.766;26.204;2023-04-19T08:35:55;100515.69;;;16.55;89.00
10008;BME280;5043;41.766;26.204;2023-04-19T08:38:22;100524.53;;;16.28;90.02
10008;BME280;5043;41.766;26.204;2023-04-19T08:40:51;100516.22;;;16.13;90.26
10008;BME280;5043;41.766;26.204;2023-04-19T08:43:18;100515.31;;;16.05;92.19
10008;BME280;5043;41.766;26.204;2023-04-19T08:45:49;100516.50;;;15.93;92.93
10008;BME280;5043;41.766;26.204;2023-04-19T08:48:17;100508.16;;;15.78;94.59
10008;BME280;5043;41.766;26.204;2023-04-19T08:50:43;100505.50;;;15.78;95.14
10008;BME280;5043;41.766;26.204;2023-04-19T08:53:12;100476.38;;;15.59;94.57
10008;BME280;5043;41.766;26.204;2023-04-19T08:55:40;100508.66;;;15.64;95.76
10008;BME280;5043;41.766;26.204;2023-04-19T08:58:06;100508.56;;;15.56;96.90
10008;BME280;5043;41.766;26.204;2023-04-19T09:00:38;100491.56;;;15.30;98.39
10008;BME280;5043;41.766;26.204;2023-04-19T09:03:06;100502.63;;;15.35;99.99
10008;BME280;5043;41.766;26.204;2023-04-19T09:05:33;100504.63;;;15.23;100.00
10008;BME280;5043;41.766;26.204;2023-04-19T09:08:26;100500.94;;;15.34;100.00
10008;BME280;5043;41.766;26.204;2023-04-19T09:10:53;100480.44;;;15.17;100.00
10008;BME280;5043;41.766;26.204;2023-04-19T09:13:25;100509.72;;;15.53;100.00
10008;BME280;5043;41.766;26.204;2023-04-19T09:15:53;100503.94;;;15.58;97.48
10008;BME280;5043;41.766;26.204;2023-04-19T09:18:23;100506.59;;;15.58;96.48
10008;BME280;5043;41.766;26.204;2023-04-19T09:20:52;100513.44;;;15.60;96.14
10008;BME280;5043;41.766;26.204;2023-04-19T09:23:23;100505.75;;;15.57;96.69
10008;BME280;5043;41.766;26.204;2023-04-19T09:25:57;100500.16;;;15.60;98.21
10008;BME280;5043;41.766;26.204;2023-04-19T09:28:30;100505.75;;;15.57;97.29
10008;BME280;5043;41.766;26.204;2023-04-19T09:30:56;100501.72;;;15.44;96.30
10008;BME280;5043;41.766;26.204;2023-04-19T09:33:33;100497.97;;;15.46;97.32
10008;BME280;5043;41.766;26.204;2023-04-19T09:36:01;100497.25;;;15.54;97.52
10008;BME280;5043;41.766;26.204;2023-04-19T09:38:29;100497.38;;;15.52;95.49
10008;BME280;5043;41.766;26.204;2023-04-19T09:41:09;100488.59;;;15.42;95.83
10008;BME280;5043;41.766;26.204;2023-04-19T09:43:36;100449.78;;;15.22;95.59
10008;BME280;5043;41.766;26.204;2023-04-19T09:46:02;100491.25;;;15.42;96.14
10008;BME280;5043;41.766;26.204;2023-04-19T09:48:29;100444.94;;;15.08;96.66
10008;BME280;5043;41.766;26.204;2023-04-19T09:51:00;100494.38;;;15.28;97.03
10008;BME280;5043;41.766;26.204;2023-04-19T09:53:29;100504.72;;;15.31;98.79
10008;BME280;5043;41.766;26.204;2023-04-19T09:55:58;100499.03;;;15.26;98.97
10008;BME280;5043;41.766;26.204;2023-04-19T09:58:25;100500.69;;;15.18;100.00
10008;BME280;5043;41.766;26.204;2023-04-19T10:00:52;100508.41;;;15.21;100.00
10008;BME280;5043;41.766;26.204;2023-04-19T10:03:18;100505.75;;;15.11;100.00
10008;BME280;5043;41.766;26.204;2023-04-19T10:05:46;100499.22;;;14.96;100.00
10008;BME280;5043;41.766;26.204;2023-04-19T10:08:12;100503.13;;;15.01;100.00
10008;BME280;5043;41.766;26.204;2023-04-19T10:10:41;100504.66;;;15.04;100.00
10008;BME280;5043;41.766;26.204;2023-04-19T10:13:17;100503.31;;;14.90;100.00
10008;BME280;5043;41.766;26.204;2023-04-19T10:15:48;100498.09;;;14.89;100.00
10008;BME280;5043;41.766;26.204;2023-04-19T10:18:14;100495.63;;;14.78;100.00
10008;BME280;5043;41.766;26.204;2023-04-19T10:20:57;100503.75;;;14.76;100.00
10008;BME280;5043;41.766;26.204;2023-04-19T10:23:28;100502.63;;;14.79;100.00
10008;BME280;5043;41.766;26.204;2023-04-19T10:25:56;100498.00;;;14.81;100.00
10008;BME280;5043;41.766;26.204;2023-04-19T10:28:22;100508.34;;;14.84;100.00
10008;BME280;5043;41.766;26.204;2023-04-19T10:31:01;100497.72;;;14.84;100.00
10008;BME280;5043;41.766;26.204;2023-04-19T10:33:33;100504.16;;;14.91;99.98
10008;BME280;5043;41.766;26.204;2023-04-19T10:36:00;100504.53;;;14.96;98.84
10008;BME280;5043;41.766;26.204;2023-04-19T10:41:09;100491.56;;;14.93;98.00
10008;BME280;5043;41.766;26.204;2023-04-19T10:43:42;100506.75;;;15.00;97.34
10008;BME280;5043;41.766;26.204;2023-04-19T10:46:13;100508.84;;;15.06;98.53
10008;BME280;5043;41.766;26.204;2023-04-19T11:01:33;100504.78;;;15.58;96.61
10008;BME280;5043;41.766;26.204;2023-04-19T11:04:01;100511.88;;;15.67;96.74
10008;BME280;5043;41.766;26.204;2023-04-19T11:06:29;100512.97;;;15.74;96.11
10008;BME280;5043;41.766;26.204;2023-04-19T11:08:55;100501.25;;;15.67;96.10
10008;BME280;5043;41.766;26.204;2023-04-19T11:11:21;100534.41;;;15.73;94.82
10008;BME280;5043;41.766;26.204;2023-04-19T11:13:47;100462.06;;;15.33;94.35
10008;BME280;5043;41.766;26.204;2023-04-19T11:16:13;100513.06;;;15.55;95.89
10008;BME280;5043;41.766;26.204;2023-04-19T11:18:38;100504.34;;;15.63;95.87
10008;BME280;5043;41.766;26.204;2023-04-19T11:21:06;100512.56;;;15.69;95.30
10008;BME280;5043;41.766;26.204;2023-04-19T11:23:40;100509.22;;;15.67;96.60
10008;BME280;5043;41.766;26.204;2023-04-19T11:26:10;100507.22;;;15.52;98.00
10008;BME280;5043;41.766;26.204;2023-04-19T11:28:37;100506.16;;;15.26;100.00
10008;BME280;5043;41.766;26.204;2023-04-19T11:31:04;100507.13;;;15.25;100.00
10008;BME280;5043;41.766;26.204;2023-04-19T11:33:33;100507.81;;;15.27;100.00
10008;BME280;5043;41.766;26.204;2023-04-19T11:35:58;100467.06;;;14.89;100.00
10008;BME280;5043;41.766;26.204;2023-04-19T11:38:29;100502.16;;;15.02;100.00
10008;BME280;5043;41.766;26.204;2023-04-19T11:41:00;100510.84;;;14.95;100.00
10008;BME280;5043;41.766;26.204;2023-04-19T11:43:36;100519.91;;;15.02;100.00
10008;BME280;5043;41.766;26.204;2023-04-19T11:46:08;100514.44;;;15.03;100.00
10008;BME280;5043;41.766;26.204;2023-04-19T11:48:37;100502.41;;;15.09;100.00
10008;BME280;5043;41.766;26.204;2023-04-19T11:51:05;100435.19;;;14.89;100.00
10008;BME280;5043;41.766;26.204;2023-04-19T11:53:33;100498.25;;;15.34;100.00
10008;BME280;5043;41.766;26.204;2023-04-19T11:56:07;100498.81;;;15.37;99.04
10008;BME280;5043;41.766;26.204;2023-04-19T12:01:19;100494.63;;;15.44;97.99
10008;BME280;5043;41.766;26.204;2023-04-19T12:03:48;100459.47;;;15.41;97.34
10008;BME280;5043;41.766;26.204;2023-04-19T12:06:16;100469.44;;;15.39;97.12
10008;BME280;5043;41.766;26.204;2023-04-19T12:11:08;100494.31;;;16.02;96.05
10008;BME280;5043;41.766;26.204;2023-04-19T12:13:35;100486.75;;;16.24;94.36
10008;BME280;5043;41.766;26.204;2023-04-19T12:16:03;100480.97;;;16.64;92.52
10008;BME280;5043;41.766;26.204;2023-04-19T12:18:49;100488.16;;;16.89;91.18
10008;BME280;5043;41.766;26.204;2023-04-19T12:21:29;100489.56;;;17.27;89.15
10008;BME280;5043;41.766;26.204;2023-04-19T12:24:25;100487.44;;;17.39;86.11
10008;BME280;5043;41.766;26.204;2023-04-19T12:26:55;100488.94;;;17.67;84.68
10008;BME280;5043;41.766;26.204;2023-04-19T12:29:21;100473.06;;;17.65;84.47
10008;BME280;5043;41.766;26.204;2023-04-19T12:31:47;100477.16;;;17.85;83.23
10008;BME280;5043;41.766;26.204;2023-04-19T12:34:12;100478.16;;;17.84;82.82
10008;BME280;5043;41.766;26.204;2023-04-19T12:36:38;100477.66;;;17.89;83.06
10008;BME280;5043;41.766;26.204;2023-04-19T12:39:03;100482.19;;;17.89;82.23
10008;BME280;5043;41.766;26.204;2023-04-19T12:41:29;100451.94;;;17.80;81.12
10008;BME280;5043;41.766;26.204;2023-04-19T12:43:55;100481.03;;;17.99;79.86
10008;BME280;5043;41.766;26.204;2023-04-19T12:46:21;100485.03;;;17.95;80.38
10008;BME280;5043;41.766;26.204;2023-04-19T12:48:49;100481.44;;;17.70;80.90
10008;BME280;5043;41.766;26.204;2023-04-19T12:51:15;100487.97;;;17.76;80.72
10008;BME280;5043;41.766;26.204;2023-04-19T12:53:46;100460.78;;;17.39;82.12
10008;BME280;5043;41.766;26.204;2023-04-19T12:56:13;100490.84;;;17.49;84.03
10008;BME280;5043;41.766;26.204;2023-04-19T12:58:40;100483.75;;;17.32;86.65
10008;BME280;5043;41.766;26.204;2023-04-19T13:01:06;100482.41;;;17.28;88.38
10008;BME280;5043;41.766;26.204;2023-04-19T13:03:31;100480.66;;;17.18;87.13